Clock
 METAR AND TAF INFORMATION
METAR FOR EGFF
ADDS - METARS form results

(0324 UTC 21 October 2019)
Data provider http://aviationweather.gov/metar/data/
 
METAR text: EGFF 210320Z AUTO 36008KT 9999 BKN025 09/07 Q1018
Conditions at: EGFF (CARDIFF-WALES AR, GB) observed 0320 UTC 21 October 2019
Temperature: 9.0°C (48°F)
Dewpoint: 7.0°C (45°F) [RH = 87%]
Pressure (altimeter): 30.06 inches Hg (1018.0 mb)
Winds: from the N (360 degrees) at 9 MPH (8 knots; 4.1 m/s)
Visibility: 6 or more miles (10+ km)
Ceiling: 2500 feet AGL
Clouds: broken clouds at 2500 feet AGL
Weather: no significant weather observed at this time

METAR text: EGFF 210250Z AUTO 01007KT 9999 NCD 09/07 Q1018
Conditions at: EGFF (CARDIFF-WALES AR, GB) observed 0250 UTC 21 October 2019
Temperature: 9.0°C (48°F)
Dewpoint: 7.0°C (45°F) [RH = 87%]
Pressure (altimeter): 30.06 inches Hg (1018.0 mb)
Winds: from the N (10 degrees) at 8 MPH (7 knots; 3.6 m/s)
Visibility: 6 or more miles (10+ km)
Ceiling: at least 12,000 feet AGL
Clouds: sky clear below 12,000 feet AGL
Weather: no significant weather observed at this time

Forecast for: EGFF (CARDIFF-WALES AR, GB)
Text: TAF EGFF 202301Z 2100/2124 01009KT 9999 FEW020 SCT035
Forecast period: 0000 UTC 21 October 2019 to 0000 UTC 22 October 2019
Forecast type: FROM: standard forecast or significant change
Winds: from the N (10 degrees) at 10 MPH (9 knots; 4.6 m/s)
Visibility: 6 or more miles 10+ km)
Ceiling: at least 12,000 feet AGL
Clouds: few clouds at 2000 feet AGL
scattered clouds at 3500 feet AGL
Weather: no significant weather forecast for this period
Text: PROB30
Forecast period: 0000 to 0300 UTC 21 October 2019
Forecast type: TEMPORARY: The following changes expected for less than half the time period
Visibility: 6 miles (9 km)
Ceiling: 1400 feet AGL
Clouds: broken clouds at 1400 feet AGL
Weather: -SHRA  (light rain showers)
Text: TEMPO 2100/2103 9000 -SHRA BKN014
Forecast period: 2200 UTC 21 October 2019 to 0000 UTC 22 October 2019
Forecast type: TEMPORARY: The following changes expected for less than half the time period
Visibility: 4 miles (6 km)
Ceiling: unknown
Clouds: missing
Weather: no significant weather forecast for this period

 AIRPORT MAP

 RUNWAY INFORMATION
Runway 12 Runway length 7848 ft Runway width 151 ft
Runway elevation 205 ft Runway displaced threshold 797 ft Runway heading 117
Runway 30 Runway length 7848 ft Runway width 151 ft
Runway elevation 213 ft Runway displaced threshold 551 ft Runway heading 297

 AIRPORT FREQUENCIES
Type APP Name Cardiff Ap Frequency 119.15 MHZ
Type APP Name Cardiff Ra Frequency 125.85 MHZ
Type ATIS Name ATIS Frequency 132.475 MHZ
Type Radar Name Frequency 133.6 MHZ
Type TWR Name Cardiff Tw Frequency 133.1 MHZ

 AIRPORT NEAR NAVIGATION AIDS